Weather History for Mount Pleasant, IA

Change the Weather History Date:

Friday, September 6, 2013

  Actual Average Record
Temperature  
Mean Temperature 76 °F -  
Max Temperature 91 °F 80 °F 97 °F (1960)
Min Temperature 62 °F 58 °F 38 °F (1988)
Cooling Degree Days 12    
Growing Degree Days 26 (Base 50)    
Moisture  
Dew Point 59 °F    
Average Humidity 61    
Maximum Humidity 94    
Minimum Humidity 27    
Precipitation  
Precipitation 0.06 in - - ()
Sea Level Pressure  
Sea Level Pressure 30.10 in    
Wind  
Wind Speed 6 mph (SSE)    
Max Wind Speed 13 mph    
Max Gust Speed 17 mph    
Visibility 10 miles    
Events      
Averages and records for this station are not official NWS values.
T = Trace of Precipitation, MM = Missing Value Source: NWS Daily Summary

Daily Weather History Graph

Daily Weather History Graph

Search for Another Location

Airport:

Trip Planner

Search our weather history database for the weather conditions in past years. The results will help you decide how hot, cold, wet, or windy it might be!

Date:

Astronomy

Sep. 06, 2013 Rise Set
Actual Time 6:37 AM CDT 7:29 PM CDT
Civil Twilight 6:10 AM CDT 7:57 PM CDT
Nautical Twilight 5:36 AM CDT 8:30 PM CDT
Astronomical Twilight 5:02 AM CDT 9:05 PM CDT
Moon 7:51 AM CDT (9/6) 7:53 PM CDT (9/6)
Length of Visible Light 13h 47m
Length of Day
12h 51m
New Moon, 2% of the Moon is Illuminated
Sep 6
New Moon
Sep 12
First Quarter
Sep 19
Full
Sep 26
Last Quarter
Oct 4
New

Hourly Weather History & Observations

Time (CDT) Temp. Heat Index Dew Point Humidity Pressure Visibility Wind Dir Wind Speed Gust Speed Precip Events Conditions
12:15 AM 69.8 °F - 62.6 °F 78% 30.16 in 10.0 mi SE 4.6 mph - N/A   Clear
12:35 AM 69.6 °F - 62.1 °F 77% 30.16 in 10.0 mi SE 3.5 mph - N/A   Clear
12:55 AM 67.5 °F - 61.7 °F 82% 30.16 in 10.0 mi East 5.8 mph - N/A   Clear
1:15 AM 66.9 °F - 61.9 °F 84% 30.17 in 10.0 mi East 5.8 mph - N/A   Clear
1:35 AM 66.2 °F - 61.7 °F 85% 30.16 in 10.0 mi East 5.8 mph - N/A   Clear
1:55 AM 65.7 °F - 62.2 °F 89% 30.16 in 10.0 mi East 8.1 mph - N/A   Clear
2:15 AM 66.4 °F - 62.6 °F 88% 30.16 in 10.0 mi East 6.9 mph - N/A   Clear
2:35 AM 66.2 °F - 62.6 °F 88% 30.16 in 10.0 mi ESE 5.8 mph - N/A   Clear
2:55 AM 66.2 °F - 62.6 °F 88% 30.16 in 10.0 mi ESE 5.8 mph - N/A   Clear
3:15 AM 66.2 °F - 62.6 °F 88% 30.16 in 10.0 mi ESE 5.8 mph - N/A   Clear
3:35 AM 66.2 °F - 62.2 °F 87% 30.16 in 10.0 mi ESE 4.6 mph - N/A   Clear
3:55 AM 65.7 °F - 62.1 °F 88% 30.16 in 10.0 mi ESE 4.6 mph - N/A   Clear
4:15 AM 65.3 °F - 62.1 °F 89% 30.16 in 10.0 mi ESE 4.6 mph - N/A   Clear
4:35 AM 64.8 °F - 61.9 °F 90% 30.16 in 10.0 mi ESE 4.6 mph - N/A   Clear
4:55 AM 64.4 °F - 61.7 °F 91% 30.16 in 10.0 mi ESE 3.5 mph - N/A   Clear
5:15 AM 64.4 °F - 61.9 °F 92% 30.16 in 10.0 mi ESE 3.5 mph - N/A   Clear
5:35 AM 63.9 °F - 61.7 °F 93% 30.17 in 7.0 mi East 4.6 mph - N/A   Clear
5:55 AM 63.9 °F - 61.9 °F 93% 30.17 in 7.0 mi East 4.6 mph - N/A   Clear
6:15 AM 63.3 °F - 61.2 °F 93% 30.17 in 7.0 mi East 4.6 mph - N/A   Clear
6:35 AM 63.0 °F - 61.0 °F 93% 30.17 in 5.0 mi East 3.5 mph - N/A   Clear
6:55 AM 62.8 °F - 61.0 °F 94% 30.17 in 4.0 mi East 3.5 mph - N/A   Clear
7:15 AM 63.1 °F - 61.2 °F 93% 30.17 in 4.0 mi East 3.5 mph - N/A   Clear
7:35 AM 64.6 °F - 62.6 °F 93% 30.18 in 5.0 mi ESE 5.8 mph - N/A   Clear
7:55 AM 66.4 °F - 63.5 °F 90% 30.18 in 5.0 mi ESE 4.6 mph - N/A   Clear
8:15 AM 68.4 °F - 64.0 °F 86% 30.18 in 10.0 mi SE 5.8 mph - N/A   Clear
8:35 AM 70.2 °F - 64.0 °F 81% 30.17 in 10.0 mi SE 6.9 mph - N/A   Clear
8:55 AM 71.8 °F - 63.5 °F 75% 30.17 in 10.0 mi SE 5.8 mph - N/A   Clear
9:15 AM 73.2 °F - 63.1 °F 71% 30.17 in 10.0 mi SSE 5.8 mph - N/A   Clear
9:35 AM 76.3 °F - 63.0 °F 63% 30.17 in 10.0 mi South 4.6 mph - 0.06 in   Clear
9:55 AM 77.4 °F - 62.2 °F 59% 30.16 in 10.0 mi SSE 5.8 mph - 0.06 in   Clear
10:15 AM 79.0 °F - 62.4 °F 57% 30.16 in 10.0 mi South 4.6 mph - N/A   Clear
10:35 AM 81.3 °F 82.1 °F 60.8 °F 50% 30.16 in 10.0 mi South 4.6 mph - N/A   Clear
10:55 AM 82.4 °F 82.6 °F 59.9 °F 46% 30.16 in 10.0 mi South 10.4 mph - N/A   Clear
11:15 AM 84.2 °F 83.7 °F 57.9 °F 41% 30.15 in 10.0 mi South 9.2 mph - N/A   Clear
11:35 AM 85.5 °F 84.8 °F 58.5 °F 40% 30.15 in 10.0 mi South 9.2 mph - N/A   Clear
11:55 AM 85.6 °F 84.8 °F 58.1 °F 39% 30.14 in 10.0 mi SSE 9.2 mph 16.1 mph N/A   Clear
12:15 PM 86.0 °F 84.9 °F 56.7 °F 37% 30.14 in 10.0 mi SSE 8.1 mph - N/A   Clear
12:35 PM 86.9 °F 85.6 °F 56.8 °F 36% 30.13 in 10.0 mi SW 9.2 mph - N/A   Clear
12:55 PM 87.3 °F 85.9 °F 56.1 °F 35% 30.11 in 10.0 mi SW 9.2 mph - N/A   Clear
1:15 PM 88.0 °F 86.1 °F 55.0 °F 32% 30.11 in 10.0 mi SSW 8.1 mph - N/A   Clear
1:35 PM 88.2 °F 86.3 °F 54.5 °F 32% 30.10 in 10.0 mi South 9.2 mph - N/A   Clear
1:55 PM 89.6 °F 87.7 °F 55.4 °F 31% 30.09 in 10.0 mi South 9.2 mph - N/A   Clear
2:15 PM 90.0 °F 87.7 °F 54.1 °F 29% 30.08 in 10.0 mi SSW 4.6 mph - N/A   Clear
2:35 PM 90.7 °F - 52.5 °F 27% 30.07 in 10.0 mi South 8.1 mph - N/A   Clear
2:55 PM 90.5 °F 88.1 °F 53.2 °F 28% 30.07 in 10.0 mi SSW 6.9 mph 16.1 mph N/A   Clear
3:15 PM 90.7 °F - 52.0 °F 27% 30.06 in 10.0 mi South 8.1 mph - N/A   Clear
3:35 PM 90.9 °F 88.5 °F 53.1 °F 28% 30.05 in 10.0 mi South 6.9 mph 12.7 mph N/A   Clear
3:55 PM 90.7 °F 88.3 °F 53.4 °F 28% 30.04 in 10.0 mi South 10.4 mph - N/A   Clear
4:15 PM 91.0 °F 88.7 °F 53.4 °F 28% 30.03 in 10.0 mi South 12.7 mph 17.3 mph N/A   Clear
4:35 PM 90.5 °F - 52.5 °F 27% 30.03 in 10.0 mi South 4.6 mph - N/A   Clear
4:55 PM 90.5 °F 88.1 °F 53.1 °F 28% 30.02 in 10.0 mi South 10.4 mph - N/A   Clear
5:15 PM 89.8 °F 87.5 °F 53.4 °F 29% 30.02 in 10.0 mi South 10.4 mph - N/A   Clear
5:35 PM 89.1 °F - 52.5 °F 29% 30.02 in 10.0 mi SSE 8.1 mph 16.1 mph N/A   Clear
5:55 PM 88.3 °F 86.1 °F 53.6 °F 30% 30.01 in 10.0 mi South 9.2 mph - N/A   Clear
6:15 PM 86.9 °F 85.5 °F 55.9 °F 35% 30.01 in 10.0 mi South 6.9 mph - N/A   Clear
6:35 PM 84.9 °F 83.7 °F 56.3 °F 37% 30.01 in 10.0 mi SSE 8.1 mph - N/A   Clear
6:55 PM 82.8 °F 82.1 °F 56.5 °F 40% 30.01 in 10.0 mi SSE 8.1 mph - N/A   Clear
7:15 PM 79.2 °F - 58.1 °F 48% 30.00 in 10.0 mi SSE 8.1 mph - N/A   Clear
7:35 PM 76.3 °F - 57.7 °F 53% 30.00 in 10.0 mi SE 6.9 mph - N/A   Clear
7:55 PM 75.4 °F - 55.9 °F 51% 30.01 in 10.0 mi SE 5.8 mph - N/A   Clear
8:15 PM 73.8 °F - 56.1 °F 54% 30.01 in 10.0 mi SE 5.8 mph - N/A   Clear
8:35 PM 72.9 °F - 55.8 °F 55% 30.01 in 10.0 mi SE 6.9 mph - N/A   Clear
8:55 PM 72.0 °F - 56.3 °F 58% 30.01 in 10.0 mi SE 6.9 mph - N/A   Clear
9:15 PM 70.7 °F - 56.7 °F 61% 30.00 in 10.0 mi SSE 8.1 mph - N/A   Clear
9:35 PM 71.2 °F - 57.2 °F 61% 30.01 in 10.0 mi SSE 8.1 mph - N/A   Clear
9:55 PM 70.7 °F - 57.6 °F 63% 30.01 in 10.0 mi SSE 8.1 mph - N/A   Clear
10:15 PM 72.1 °F - 57.6 °F 60% 30.01 in 10.0 mi SSE 6.9 mph - N/A   Clear
10:35 PM 71.1 °F - 58.5 °F 64% 30.01 in 10.0 mi SSE 8.1 mph - N/A   Clear
10:55 PM 70.9 °F - 59.0 °F 66% 30.01 in 10.0 mi South 6.9 mph - N/A   Clear
11:15 PM 69.3 °F - 59.5 °F 71% 30.01 in 10.0 mi South 4.6 mph - N/A   Clear
11:35 PM 69.3 °F - 59.9 °F 72% 30.00 in 10.0 mi South 5.8 mph - N/A   Clear
11:55 PM 68.2 °F - 60.1 °F 75% 30.00 in 10.0 mi South 4.6 mph - N/A   Clear